Time;durP1;ratioP1;P1;durP2;ratioP2;P2;SDS_P1;SDS_P2;PMS_P1;PMS_P2;Temp;Humidity;BMP_temperature;BMP_pressure;BME280_temperature;BME280_humidity;BME280_pressure;Samples;Min_cycle;Max_cycle;Signal;HPM_P1;HPM_P2
2021/08/02 00:00:58;;;;;;;2.40;0.28;;;10.60;99.90;;;;;;4859958;29;20033;-70
2021/08/02 00:03:46;;;;;;;3.38;0.75;;;10.60;99.90;;;;;;4860106;29;20037;-70
2021/08/02 00:06:23;;;;;;;0.30;0.30;;;10.50;99.90;;;;;;4859188;29;20037;-70
2021/08/02 00:09:02;;;;;;;0.35;0.35;;;10.40;99.90;;;;;;4859717;29;20502;-70
2021/08/02 00:11:37;;;;;;;0.28;0.28;;;10.40;99.90;;;;;;4860085;29;20030;-70
2021/08/02 00:14:05;;;;;;;3.58;0.35;;;10.40;99.90;;;;;;4859730;29;20490;-70
2021/08/02 00:16:32;;;;;;;1.67;0.40;;;10.40;99.90;;;;;;4859988;29;20036;-70
2021/08/02 00:18:58;;;;;;;0.30;0.30;;;10.30;99.90;;;;;;4859931;29;20033;-70
2021/08/02 00:21:24;;;;;;;0.55;0.30;;;10.30;99.90;;;;;;4859555;29;20177;-70
2021/08/02 00:23:50;;;;;;;0.35;0.30;;;10.30;99.90;;;;;;4859812;29;20038;-70
2021/08/02 00:26:16;;;;;;;0.30;0.30;;;10.30;99.90;;;;;;4859578;29;20382;-70
2021/08/02 00:28:42;;;;;;;2.60;0.28;;;10.20;99.90;;;;;;4859509;29;20053;-70
2021/08/02 00:31:09;;;;;;;0.22;0.22;;;10.20;99.90;;;;;;4859452;29;20037;-69
2021/08/02 00:33:34;;;;;;;0.30;0.30;;;10.20;99.90;;;;;;4859603;29;20025;-70
2021/08/02 00:36:06;;;;;;;0.30;0.30;;;10.10;99.90;;;;;;4859903;29;20559;-70
2021/08/02 00:38:36;;;;;;;1.05;0.40;;;10.10;99.90;;;;;;4859520;29;20113;-70
2021/08/02 00:41:34;;;;;;;0.52;0.30;;;10.00;99.90;;;;;;4859862;29;20026;-70
2021/08/02 00:44:22;;;;;;;0.35;0.35;;;9.90;99.90;;;;;;4866263;29;20112;-70
2021/08/02 00:46:55;;;;;;;0.30;0.30;;;9.80;99.90;;;;;;4859747;29;20090;-70
2021/08/02 00:49:25;;;;;;;5.13;0.50;;;9.80;99.90;;;;;;4859069;29;20045;-70
2021/08/02 00:51:53;;;;;;;0.40;0.40;;;9.80;99.90;;;;;;4859773;29;20037;-70
2021/08/02 00:54:21;;;;;;;0.52;0.32;;;9.80;99.90;;;;;;4859254;29;20032;-70
2021/08/02 00:56:48;;;;;;;0.40;0.35;;;9.80;99.90;;;;;;4873891;29;20041;-70
2021/08/02 00:59:14;;;;;;;0.30;0.30;;;9.80;99.90;;;;;;4859197;29;20030;-70
2021/08/02 01:01:44;;;;;;;0.75;0.20;;;9.70;99.90;;;;;;4859656;29;20093;-70
2021/08/02 01:04:11;;;;;;;0.68;0.30;;;9.60;99.90;;;;;;4859184;29;20026;-70
2021/08/02 01:06:38;;;;;;;0.30;0.30;;;9.60;99.90;;;;;;4859302;29;20065;-70
2021/08/02 01:09:06;;;;;;;0.40;0.30;;;9.60;99.90;;;;;;4859403;29;20049;-70
2021/08/02 01:11:35;;;;;;;0.30;0.30;;;9.60;99.90;;;;;;4859258;29;20030;-71
2021/08/02 01:14:06;;;;;;;0.70;0.30;;;9.60;99.90;;;;;;4859267;29;20474;-69
2021/08/02 01:16:34;;;;;;;0.75;0.30;;;9.60;99.90;;;;;;4860918;29;20333;-69
2021/08/02 01:48:14;;;;;;;1.10;0.30;;;9.30;99.90;;;;;;4862030;29;20189;-70
2021/08/02 01:51:01;;;;;;;0.30;0.30;;;9.30;99.90;;;;;;4862015;29;20033;-69
2021/08/02 01:53:33;;;;;;;0.60;0.30;;;9.30;99.90;;;;;;4862047;29;20037;-69
2021/08/02 01:56:19;;;;;;;0.28;0.28;;;9.20;99.90;;;;;;4862345;29;20371;-71
2021/08/02 01:59:09;;;;;;;0.30;0.30;;;9.20;99.90;;;;;;4861750;29;20033;-71
2021/08/02 02:01:40;;;;;;;;;;;9.20;99.90;;;;;;4862054;29;20048;-71
2021/08/02 02:04:07;;;;;;;0.55;0.52;;;9.10;99.90;;;;;;4862180;29;20019;-71
2021/08/02 02:06:38;;;;;;;0.57;0.40;;;9.10;99.90;;;;;;4861702;29;20174;-71
2021/08/02 02:09:04;;;;;;;;;;;9.10;99.90;;;;;;4862383;29;20050;-71
2021/08/02 02:11:32;;;;;;;0.50;0.22;;;9.00;99.90;;;;;;4861637;29;20352;-71
2021/08/02 02:14:04;;;;;;;0.50;0.35;;;9.00;99.90;;;;;;4861645;29;20113;-71
2021/08/02 02:16:31;;;;;;;0.30;0.30;;;9.00;99.90;;;;;;4861499;29;20030;-73
2021/08/02 02:19:02;;;;;;;1.85;0.30;;;9.00;99.90;;;;;;4861534;29;20065;-71
2021/08/02 02:21:29;;;;;;;0.63;0.20;;;9.00;99.90;;;;;;4875983;29;20025;-73
2021/08/02 02:23:56;;;;;;;0.20;0.20;;;9.00;99.90;;;;;;4861419;29;20109;-73
2021/08/02 02:26:27;;;;;;;0.30;0.30;;;9.00;99.90;;;;;;4861504;29;20029;-72
2021/08/02 02:28:55;;;;;;;0.30;0.30;;;9.00;99.90;;;;;;4860566;29;20629;-72
2021/08/02 02:31:23;;;;;;;0.30;0.30;;;8.90;99.90;;;;;;4861501;29;20030;-70
2021/08/02 02:33:51;;;;;;;0.30;0.30;;;8.90;99.90;;;;;;4861329;29;20029;-72
2021/08/02 02:36:18;;;;;;;0.30;0.30;;;8.90;99.90;;;;;;4861376;29;20029;-70
2021/08/02 02:38:44;;;;;;;0.28;0.20;;;8.90;99.90;;;;;;4861140;29;20101;-70
2021/08/02 02:41:10;;;;;;;4.28;0.50;;;8.90;99.90;;;;;;4861582;29;20033;-70
2021/08/02 02:43:37;;;;;;;0.30;0.30;;;8.90;99.90;;;;;;4861362;29;20506;-70
2021/08/02 02:46:03;;;;;;;0.75;0.30;;;8.90;99.90;;;;;;4861525;29;20367;-72
2021/08/02 02:48:30;;;;;;;2.65;0.45;;;8.80;99.90;;;;;;4860940;29;20060;-72
2021/08/02 02:50:57;;;;;;;0.22;0.22;;;8.80;99.90;;;;;;4861365;29;20045;-72
2021/08/02 02:53:23;;;;;;;0.73;0.30;;;8.80;99.90;;;;;;4861133;29;20513;-73
2021/08/02 02:55:50;;;;;;;0.20;0.20;;;8.80;99.90;;;;;;4860849;29;20033;-72
2021/08/02 02:58:15;;;;;;;0.50;0.35;;;8.80;99.90;;;;;;4861240;29;20029;-72
2021/08/02 03:00:42;;;;;;;0.30;0.30;;;8.80;99.90;;;;;;4860977;29;20418;-73
2021/08/02 03:03:10;;;;;;;0.30;0.30;;;8.80;99.90;;;;;;4860865;29;20375;-72
2021/08/02 03:05:38;;;;;;;0.35;0.35;;;8.80;99.90;;;;;;4860922;29;20033;-73
2021/08/02 03:08:07;;;;;;;0.30;0.30;;;8.80;99.90;;;;;;4860751;29;20047;-72
2021/08/02 03:10:34;;;;;;;0.30;0.30;;;8.90;99.90;;;;;;4860604;29;20066;-72
2021/08/02 03:13:00;;;;;;;0.32;0.20;;;9.00;99.90;;;;;;4860693;29;20486;-72
2021/08/02 03:15:26;;;;;;;0.90;0.22;;;9.10;99.90;;;;;;4860861;29;20077;-70
2021/08/02 03:17:52;;;;;;;0.30;0.30;;;9.10;99.90;;;;;;4860510;29;20037;-72
2021/08/02 03:20:18;;;;;;;0.52;0.30;;;9.10;99.90;;;;;;4860546;29;20109;-72
2021/08/02 03:22:52;;;;;;;0.30;0.30;;;9.10;99.90;;;;;;4860344;29;20033;-72
2021/08/02 03:25:28;;;;;;;0.57;0.40;;;9.10;99.90;;;;;;4860428;29;20029;-71
2021/08/02 03:28:24;;;;;;;2.92;0.40;;;9.10;99.90;;;;;;4860278;29;20566;-72
2021/08/02 03:30:52;;;;;;;0.20;0.20;;;9.20;99.90;;;;;;4866628;29;20406;-72
2021/08/02 03:33:25;;;;;;;0.20;0.20;;;9.20;99.90;;;;;;4860553;29;20034;-72
2021/08/02 03:35:54;;;;;;;0.30;0.30;;;9.30;99.90;;;;;;4860451;29;20029;-72
2021/08/02 03:38:20;;;;;;;0.20;0.20;;;9.30;99.90;;;;;;4860522;29;20094;-72
2021/08/02 03:40:47;;;;;;;0.20;0.20;;;9.30;99.90;;;;;;4860247;29;20043;-72
2021/08/02 03:43:15;;;;;;;0.20;0.20;;;9.40;99.90;;;;;;4860492;29;20081;-72
2021/08/02 03:45:43;;;;;;;1.25;0.40;;;9.40;99.90;;;;;;4859921;29;20038;-72
2021/08/02 03:48:10;;;;;;;0.20;0.20;;;9.50;99.90;;;;;;4859836;29;20045;-72
2021/08/02 03:50:37;;;;;;;1.77;0.52;;;9.50;99.90;;;;;;4859900;29;20037;-72
2021/08/02 03:53:04;;;;;;;0.30;0.30;;;9.60;99.90;;;;;;4860114;29;20112;-72
2021/08/02 03:55:31;;;;;;;0.85;0.30;;;9.80;99.90;;;;;;4860294;29;20048;-72
2021/08/02 03:57:57;;;;;;;1.45;0.30;;;10.20;99.90;;;;;;4859990;29;20033;-72
2021/08/02 04:00:24;;;;;;;1.23;0.30;;;10.80;99.90;;;;;;4860215;29;20093;-72
2021/08/02 04:02:50;;;;;;;0.30;0.30;;;11.30;99.90;;;;;;4859926;29;20486;-72
2021/08/02 04:05:17;;;;;;;0.20;0.20;;;11.80;99.90;;;;;;4860250;29;20073;-72
2021/08/02 04:07:43;;;;;;;0.75;0.30;;;12.20;99.90;;;;;;4860053;29;20041;-71
2021/08/02 04:10:09;;;;;;;0.20;0.20;;;12.60;99.20;;;;;;4860192;29;20184;-71
2021/08/02 04:12:36;;;;;;;0.47;0.30;;;13.00;98.10;;;;;;4860050;29;20030;-72
2021/08/02 04:15:01;;;;;;;1.08;0.28;;;13.40;97.30;;;;;;4860076;29;20041;-72
2021/08/02 04:17:27;;;;;;;0.20;0.20;;;13.70;96.10;;;;;;4860054;29;20026;-72
2021/08/02 04:19:53;;;;;;;0.20;0.20;;;14.00;94.70;;;;;;4859575;29;20041;-72
2021/08/02 04:22:18;;;;;;;0.20;0.20;;;14.20;94.00;;;;;;4859957;29;20080;-71
2021/08/02 04:24:44;;;;;;;0.43;0.20;;;14.50;93.20;;;;;;4859805;29;20396;-72
2021/08/02 04:27:10;;;;;;;0.30;0.20;;;14.80;92.40;;;;;;4859937;29;20509;-69
2021/08/02 04:29:35;;;;;;;1.77;0.30;;;15.00;91.40;;;;;;4859440;29;20049;-71
2021/08/02 04:32:01;;;;;;;0.20;0.10;;;15.30;90.60;;;;;;4859918;29;20092;-78
2021/08/02 04:34:27;;;;;;;0.20;0.20;;;15.60;90.10;;;;;;4859589;29;20073;-76
2021/08/02 04:36:53;;;;;;;0.40;0.20;;;15.80;88.00;;;;;;4859858;29;20029;-74
2021/08/02 04:39:18;;;;;;;0.10;0.10;;;16.10;87.90;;;;;;4859836;29;20037;-73
2021/08/02 04:41:44;;;;;;;0.85;0.13;;;16.60;87.50;;;;;;4859700;29;20033;-80
2021/08/02 04:44:10;;;;;;;2.05;0.10;;;17.00;83.90;;;;;;4859778;29;20403;-74
2021/08/02 04:46:35;;;;;;;0.22;0.20;;;17.40;82.10;;;;;;4853796;29;20026;-73
2021/08/02 04:49:01;;;;;;;1.00;0.45;;;17.70;79.80;;;;;;4856543;29;20049;-83
2021/08/02 04:51:27;;;;;;;0.10;0.10;;;17.70;76.90;;;;;;4860996;29;20109;-72
2021/08/02 04:53:53;;;;;;;0.10;0.10;;;17.70;76.10;;;;;;4862981;29;20072;-74
2021/08/02 04:56:19;;;;;;;0.10;0.10;;;17.60;75.20;;;;;;4863229;29;20085;-76
2021/08/02 04:58:44;;;;;;;0.40;0.08;;;17.60;75.60;;;;;;4862992;29;20037;-74
2021/08/02 05:01:10;;;;;;;0.08;0.08;;;17.80;75.40;;;;;;4863354;29;20025;-73
2021/08/02 05:03:38;;;;;;;0.10;0.10;;;17.90;73.40;;;;;;4862984;29;20117;-74
2021/08/02 05:06:04;;;;;;;0.10;0.10;;;18.00;72.40;;;;;;4862854;29;20040;-75
2021/08/02 05:08:30;;;;;;;1.65;0.10;;;18.00;71.30;;;;;;4863064;29;20037;-73
2021/08/02 05:10:55;;;;;;;0.85;0.15;;;18.00;71.20;;;;;;4862678;29;20493;-73
2021/08/02 05:13:21;;;;;;;0.10;0.10;;;18.20;70.80;;;;;;4863163;29;20049;-72
2021/08/02 05:15:47;;;;;;;0.10;0.10;;;18.20;69.90;;;;;;4862873;29;20100;-73
2021/08/02 05:18:14;;;;;;;0.25;0.10;;;18.30;69.40;;;;;;4863077;29;20038;-73
2021/08/02 05:20:41;;;;;;;0.32;0.15;;;18.40;69.50;;;;;;4862542;29;20398;-74
2021/08/02 05:23:07;;;;;;;2.05;0.10;;;18.60;68.70;;;;;;4862928;29;20125;-75
2021/08/02 05:25:32;;;;;;;0.65;0.20;;;18.70;68.60;;;;;;4862932;29;20514;-75
2021/08/02 05:27:58;;;;;;;1.67;0.20;;;18.80;66.50;;;;;;4862699;29;20330;-75
2021/08/02 05:30:24;;;;;;;0.95;0.25;;;18.90;65.20;;;;;;4862600;29;20489;-76
2021/08/02 05:32:50;;;;;;;2.00;0.10;;;19.00;65.00;;;;;;4862504;29;20064;-75
2021/08/02 05:35:16;;;;;;;5.80;0.20;;;19.10;64.10;;;;;;4862489;29;20037;-74
2021/08/02 05:37:42;;;;;;;4.00;0.45;;;19.30;63.40;;;;;;4862603;29;20038;-75
2021/08/02 05:40:08;;;;;;;0.05;0.05;;;19.40;63.50;;;;;;4862327;29;20043;-75
2021/08/02 05:42:35;;;;;;;0.10;0.10;;;19.40;62.80;;;;;;4862325;29;20036;-75
2021/08/02 05:45:02;;;;;;;0.20;0.10;;;19.50;61.90;;;;;;4862441;29;20033;-75
2021/08/02 05:47:28;;;;;;;0.22;0.08;;;19.50;61.80;;;;;;4862516;29;20041;-75
2021/08/02 05:49:54;;;;;;;0.28;0.10;;;19.60;61.70;;;;;;4862150;29;20101;-76
2021/08/02 05:52:19;;;;;;;0.03;0.03;;;19.60;61.00;;;;;;4862233;29;20371;-74
2021/08/02 05:54:45;;;;;;;0.30;0.10;;;19.70;60.70;;;;;;4861977;29;20032;-73
2021/08/02 05:57:11;;;;;;;0.82;0.08;;;19.80;60.10;;;;;;4862364;29;20057;-73
2021/08/02 05:59:36;;;;;;;2.63;0.10;;;19.80;59.90;;;;;;4861937;29;20140;-72
2021/08/02 06:02:05;;;;;;;1.92;0.10;;;19.90;60.00;;;;;;4861442;29;20041;-76
2021/08/02 06:04:31;;;;;;;1.88;0.10;;;19.90;60.00;;;;;;4861334;29;20033;-73
2021/08/02 06:06:56;;;;;;;0.30;0.10;;;20.00;59.80;;;;;;4876063;29;20034;-74
2021/08/02 06:09:23;;;;;;;4.40;0.60;;;20.10;59.60;;;;;;4861744;29;20398;-75
2021/08/02 06:11:51;;;;;;;0.00;0.00;;;20.00;59.10;;;;;;4861891;29;20026;-77
2021/08/02 06:14:17;;;;;;;0.10;0.10;;;20.10;59.20;;;;;;4861636;29;20041;-75
2021/08/02 06:16:43;;;;;;;0.10;0.10;;;20.10;59.60;;;;;;4861859;29;20163;-75
2021/08/02 06:19:08;;;;;;;0.52;0.10;;;20.10;59.10;;;;;;4858642;29;20185;-76
2021/08/02 06:21:34;;;;;;;3.95;0.45;;;20.20;58.70;;;;;;4853320;29;20033;-79
2021/08/02 06:24:00;;;;;;;1.38;0.10;;;20.30;58.60;;;;;;4861564;29;20026;-77
2021/08/02 06:26:26;;;;;;;0.10;0.10;;;20.40;58.20;;;;;;4861600;29;20029;-83
2021/08/02 06:28:51;;;;;;;1.75;0.20;;;20.40;58.70;;;;;;4861393;29;20037;-82
2021/08/02 06:31:18;;;;;;;0.00;0.00;;;20.40;57.90;;;;;;4861474;29;20128;-82
2021/08/02 06:33:44;;;;;;;0.13;0.10;;;20.40;58.50;;;;;;4861678;29;20100;-84
2021/08/02 06:36:10;;;;;;;4.75;0.10;;;20.30;57.40;;;;;;4861291;29;20526;-84
2021/08/02 06:38:36;;;;;;;0.00;0.00;;;20.20;58.20;;;;;;4861491;29;20045;-84
2021/08/02 06:41:03;;;;;;;5.78;0.20;;;20.20;58.10;;;;;;4861346;29;20057;-84
2021/08/02 06:43:29;;;;;;;2.17;0.57;;;20.10;58.20;;;;;;4861609;29;20036;-84
2021/08/02 06:45:55;;;;;;;0.10;0.10;;;19.80;58.20;;;;;;4861039;29;20050;-84
2021/08/02 06:48:21;;;;;;;2.90;0.45;;;19.70;58.70;;;;;;4861081;29;20050;-84
2021/08/02 06:50:48;;;;;;;1.63;0.25;;;19.80;59.30;;;;;;4861131;29;20030;-82
2021/08/02 06:53:13;;;;;;;0.98;0.10;;;19.90;59.20;;;;;;4861495;29;20097;-82
2021/08/02 06:55:39;;;;;;;0.82;0.10;;;19.80;59.40;;;;;;4861159;29;20486;-82
2021/08/02 06:58:05;;;;;;;0.47;0.10;;;19.90;59.50;;;;;;4861358;29;20034;-84
2021/08/02 07:00:32;;;;;;;2.28;0.10;;;19.90;59.30;;;;;;4861045;29;20033;-86
2021/08/02 07:02:58;;;;;;;0.10;0.10;;;20.00;59.30;;;;;;4861024;29;20398;-78
2021/08/02 07:05:24;;;;;;;0.00;0.00;;;20.00;59.10;;;;;;4843983;29;20030;-79
2021/08/02 07:07:50;;;;;;;0.20;0.10;;;20.00;59.70;;;;;;4842429;29;20050;-78
2021/08/02 07:10:16;;;;;;;1.67;0.10;;;20.20;58.90;;;;;;4842284;29;20038;-75
2021/08/02 07:12:42;;;;;;;0.10;0.10;;;20.30;58.70;;;;;;4852589;29;20030;-75
2021/08/02 07:15:08;;;;;;;0.20;0.10;;;20.30;58.80;;;;;;4853883;29;20038;-77
2021/08/02 07:17:34;;;;;;;0.10;0.10;;;20.40;58.80;;;;;;4854914;29;20513;-75
2021/08/02 07:20:00;;;;;;;0.47;0.10;;;20.40;58.00;;;;;;4850813;29;20029;-75
2021/08/02 07:22:25;;;;;;;0.05;0.05;;;20.40;58.80;;;;;;4851299;29;20042;-75
2021/08/02 07:24:51;;;;;;;0.10;0.10;;;20.50;58.90;;;;;;4850355;29;20558;-84
2021/08/02 07:27:17;;;;;;;0.10;0.10;;;20.60;59.00;;;;;;4851353;29;20037;-77
2021/08/02 07:29:42;;;;;;;0.15;0.10;;;20.60;58.70;;;;;;4850598;29;20566;-86
2021/08/02 07:32:08;;;;;;;0.10;0.10;;;20.60;58.10;;;;;;4843969;29;20567;-74
2021/08/02 07:34:34;;;;;;;0.90;0.20;;;20.60;59.30;;;;;;4841801;29;20043;-73
2021/08/02 07:37:00;;;;;;;0.10;0.10;;;20.50;58.40;;;;;;4841894;29;20049;-73
2021/08/02 07:39:25;;;;;;;0.38;0.10;;;20.40;58.30;;;;;;4844067;29;20026;-75
2021/08/02 07:41:54;;;;;;;2.08;0.10;;;20.40;58.80;;;;;;4841948;29;20124;-75
2021/08/02 07:44:20;;;;;;;0.05;0.05;;;20.40;58.80;;;;;;4841762;29;20085;-75
2021/08/02 07:46:45;;;;;;;0.30;0.10;;;20.40;58.90;;;;;;4841932;29;20113;-76
2021/08/02 07:49:11;;;;;;;1.13;0.20;;;20.40;59.30;;;;;;4857098;29;20518;-74
2021/08/02 07:51:37;;;;;;;0.03;0.03;;;20.50;59.70;;;;;;4841891;29;20030;-74
2021/08/02 07:54:03;;;;;;;0.25;0.10;;;20.30;58.60;;;;;;4841635;29;20132;-74
2021/08/02 07:56:29;;;;;;;0.10;0.10;;;20.20;59.40;;;;;;4841818;29;20522;-72
2021/08/02 07:58:56;;;;;;;0.00;0.00;;;19.80;58.30;;;;;;4841800;29;20034;-74
2021/08/02 08:01:22;;;;;;;4.95;0.20;;;19.70;59.30;;;;;;4841811;29;20034;-74
2021/08/02 08:03:47;;;;;;;2.40;0.85;;;19.60;59.60;;;;;;4841530;29;20041;-74
2021/08/02 08:06:13;;;;;;;0.10;0.10;;;19.60;60.70;;;;;;4841851;29;20085;-74
2021/08/02 08:08:39;;;;;;;0.30;0.10;;;19.60;59.90;;;;;;4841498;29;20034;-74
2021/08/02 08:11:09;;;;;;;0.10;0.10;;;19.40;59.60;;;;;;4841367;29;20113;-74
2021/08/02 08:13:36;;;;;;;0.13;0.05;;;19.20;60.30;;;;;;4841840;29;20063;-74
2021/08/02 08:16:02;;;;;;;0.63;0.10;;;19.20;61.00;;;;;;4841467;29;20029;-74
2021/08/02 08:18:29;;;;;;;0.60;0.10;;;19.20;61.40;;;;;;4841646;29;20174;-74
2021/08/02 08:20:58;;;;;;;2.42;0.22;;;19.30;61.20;;;;;;4841380;29;20100;-74
2021/08/02 08:23:24;;;;;;;0.20;0.10;;;19.30;61.10;;;;;;4841363;29;20052;-74
2021/08/02 08:25:50;;;;;;;0.43;0.10;;;19.20;61.30;;;;;;4840481;29;20034;-74
2021/08/02 08:28:16;;;;;;;0.00;0.00;;;19.10;60.90;;;;;;4841485;29;20041;-73
2021/08/02 08:30:42;;;;;;;0.10;0.10;;;19.20;61.60;;;;;;4841289;29;20062;-74
2021/08/02 08:33:08;;;;;;;0.13;0.10;;;19.20;61.50;;;;;;4841072;29;20053;-74
2021/08/02 08:35:37;;;;;;;2.45;0.10;;;19.10;61.90;;;;;;4841034;29;20475;-74
2021/08/02 08:38:03;;;;;;;0.47;0.13;;;19.10;62.00;;;;;;4841232;29;20120;-73
2021/08/02 08:40:30;;;;;;;0.57;0.20;;;19.10;61.90;;;;;;4841450;29;20034;-74
2021/08/02 08:42:56;;;;;;;0.30;0.10;;;19.00;61.60;;;;;;4841342;29;20026;-74
2021/08/02 08:45:22;;;;;;;0.08;0.08;;;18.90;61.70;;;;;;4841355;29;20034;-74
2021/08/02 08:47:48;;;;;;;0.10;0.10;;;18.90;62.40;;;;;;4841234;29;20517;-74
2021/08/02 08:50:14;;;;;;;0.17;0.10;;;19.00;62.70;;;;;;4840818;29;20536;-73
2021/08/02 08:52:40;;;;;;;0.30;0.10;;;19.10;62.40;;;;;;4841404;29;20109;-73
2021/08/02 08:55:11;;;;;;;0.20;0.20;;;19.20;61.00;;;;;;4841036;29;20034;-74
2021/08/02 08:57:37;;;;;;;0.80;0.20;;;19.20;61.50;;;;;;4840996;29;20026;-73
2021/08/02 09:00:06;;;;;;;0.10;0.10;;;19.10;61.00;;;;;;4840735;29;20546;-74
2021/08/02 09:02:32;;;;;;;0.20;0.10;;;19.00;62.20;;;;;;4841262;29;20057;-73
2021/08/02 09:05:00;;;;;;;0.10;0.10;;;18.90;62.60;;;;;;4840994;29;20505;-73
2021/08/02 09:07:40;;;;;;;0.28;0.10;;;18.80;60.70;;;;;;4840853;29;20026;-74
2021/08/02 09:10:25;;;;;;;0.25;0.10;;;18.70;61.20;;;;;;4840695;29;20078;-73
2021/08/02 09:12:52;;;;;;;8.45;0.35;;;18.80;61.60;;;;;;4849178;29;20026;-74
2021/08/02 09:15:28;;;;;;;0.35;0.10;;;19.00;64.20;;;;;;4856962;29;20085;-78
2021/08/02 09:17:54;;;;;;;1.33;0.35;;;19.20;63.90;;;;;;4847106;29;20037;-78
2021/08/02 09:20:29;;;;;;;4.88;1.15;;;19.30;64.30;;;;;;4840621;29;20034;-75
2021/08/02 09:23:08;;;;;;;0.10;0.10;;;19.40;62.60;;;;;;4840739;29;20399;-75
2021/08/02 09:25:34;;;;;;;0.10;0.10;;;19.20;59.80;;;;;;4840871;29;20022;-75
2021/08/02 09:28:11;;;;;;;0.00;0.00;;;18.90;60.80;;;;;;4840604;29;20033;-75
2021/08/02 09:30:36;;;;;;;0.10;0.10;;;18.80;61.30;;;;;;4840888;29;20034;-75
2021/08/02 09:33:05;;;;;;;0.40;0.13;;;18.60;61.40;;;;;;4840556;29;20034;-75
2021/08/02 09:35:32;;;;;;;0.10;0.10;;;18.50;62.50;;;;;;4840864;29;20087;-75
2021/08/02 09:38:03;;;;;;;0.10;0.10;;;18.40;63.00;;;;;;4856545;29;20441;-75
2021/08/02 09:40:37;;;;;;;0.10;0.10;;;18.40;62.70;;;;;;4844208;29;20022;-75
2021/08/02 09:43:03;;;;;;;1.30;0.13;;;18.50;64.30;;;;;;4854888;29;20065;-74
2021/08/02 09:45:43;;;;;;;0.25;0.10;;;18.60;63.90;;;;;;4862278;29;20057;-76
2021/08/02 09:48:09;;;;;;;0.10;0.10;;;18.70;62.80;;;;;;4862138;29;20040;-76
2021/08/02 09:50:34;;;;;;;1.20;0.10;;;18.80;61.10;;;;;;4862775;29;20038;-76
2021/08/02 09:53:00;;;;;;;0.40;0.10;;;18.90;61.30;;;;;;4862020;29;20053;-74
2021/08/02 09:55:26;;;;;;;5.90;0.20;;;18.90;60.00;;;;;;4862187;29;20029;-73
2021/08/02 09:57:54;;;;;;;0.77;0.13;;;19.00;60.00;;;;;;4862000;29;20068;-74
2021/08/02 10:00:21;;;;;;;0.20;0.20;;;18.90;58.70;;;;;;4861893;29;20037;-74
2021/08/02 10:02:48;;;;;;;0.10;0.10;;;18.80;59.90;;;;;;4861984;29;20120;-74
2021/08/02 10:05:19;;;;;;;0.20;0.10;;;18.80;58.40;;;;;;4861896;29;20445;-74
2021/08/02 10:07:45;;;;;;;2.00;0.40;;;18.60;58.10;;;;;;4861955;29;20379;-74
2021/08/02 10:10:12;;;;;;;0.45;0.20;;;18.60;59.10;;;;;;4861736;29;20033;-74
2021/08/02 10:12:44;;;;;;;0.10;0.10;;;18.50;59.50;;;;;;4861754;29;20036;-73
2021/08/02 10:15:16;;;;;;;2.50;0.17;;;18.50;59.20;;;;;;4861833;29;20037;-75
2021/08/02 10:17:51;;;;;;;0.65;0.20;;;18.40;58.60;;;;;;4861839;29;20025;-75
2021/08/02 10:20:17;;;;;;;0.10;0.10;;;18.40;59.00;;;;;;4861515;29;20077;-75
2021/08/02 10:22:44;;;;;;;0.20;0.10;;;18.40;59.70;;;;;;4861510;29;20089;-75
2021/08/02 10:25:10;;;;;;;0.00;0.00;;;18.50;59.60;;;;;;4855867;29;20040;-76
2021/08/02 10:27:41;;;;;;;0.30;0.10;;;18.50;59.80;;;;;;4843486;29;20053;-84
2021/08/02 10:30:24;;;;;;;0.30;0.17;;;18.40;60.00;;;;;;4843973;29;20606;-89
2021/08/02 10:32:54;;;;;;;0.45;0.30;;;18.40;60.10;;;;;;4844431;29;20389;-87
2021/08/02 10:35:35;;;;;;;0.10;0.10;;;18.40;60.00;;;;;;4844154;29;20073;-89
2021/08/02 10:38:06;;;;;;;1.85;0.20;;;18.30;61.60;;;;;;4844646;29;20083;-88
2021/08/02 10:40:48;;;;;;;8.07;0.20;;;18.20;60.90;;;;;;4845073;29;20018;-90
2021/08/02 10:43:29;;;;;;;0.52;0.10;;;18.20;62.00;;;;;;4844260;29;20038;-89
2021/08/02 10:45:56;;;;;;;1.35;0.20;;;18.20;62.30;;;;;;4844653;29;20037;-88
2021/08/02 10:48:27;;;;;;;3.28;0.70;;;18.20;62.30;;;;;;4843779;29;20054;-90
2021/08/02 10:50:54;;;;;;;2.22;0.32;;;18.10;62.00;;;;;;4844107;29;20030;-88
2021/08/02 10:53:20;;;;;;;4.50;0.20;;;18.00;62.10;;;;;;4844677;29;20074;-91
2021/08/02 10:55:49;;;;;;;2.15;0.10;;;18.00;62.80;;;;;;4844441;29;20034;-89
2021/08/02 10:58:50;;;;;;;0.50;0.47;;;18.00;62.60;;;;;;4844407;29;20041;-90
2021/08/02 11:01:16;;;;;;;3.50;0.30;;;17.90;62.30;;;;;;4838128;29;20291;-90
2021/08/02 11:03:42;;;;;;;0.73;0.20;;;17.80;62.50;;;;;;4844351;29;20078;-87
2021/08/02 11:06:13;;;;;;;0.50;0.20;;;17.80;62.50;;;;;;4843589;29;20034;-88
2021/08/02 11:09:06;;;;;;;0.32;0.20;;;17.90;62.80;;;;;;4843145;29;20060;-89
2021/08/02 11:11:34;;;;;;;1.65;0.30;;;17.90;62.80;;;;;;4840663;29;20041;-90
2021/08/02 11:14:13;;;;;;;2.53;0.20;;;17.90;61.80;;;;;;4842393;29;20072;-77
2021/08/02 11:16:50;;;;;;;0.75;0.10;;;17.90;62.50;;;;;;4842437;29;20042;-80
2021/08/02 11:19:22;;;;;;;3.00;0.20;;;18.00;63.40;;;;;;4842481;29;20526;-78
2021/08/02 11:22:00;;;;;;;2.65;0.20;;;18.10;62.90;;;;;;4841975;29;20026;-77
2021/08/02 11:24:28;;;;;;;6.03;0.25;;;18.00;63.00;;;;;;4842152;29;20034;-80
2021/08/02 11:26:56;;;;;;;6.32;0.50;;;18.10;63.00;;;;;;4842032;29;20061;-80
2021/08/02 11:29:33;;;;;;;0.88;0.17;;;18.00;63.20;;;;;;4842081;29;20048;-79
2021/08/02 11:32:00;;;;;;;1.35;0.20;;;18.10;63.50;;;;;;4841924;29;20022;-78
2021/08/02 11:34:27;;;;;;;0.85;0.20;;;18.10;63.50;;;;;;4841904;29;20113;-79
2021/08/02 11:37:00;;;;;;;3.60;0.30;;;18.30;62.50;;;;;;4841829;29;20520;-77
2021/08/02 11:39:26;;;;;;;0.20;0.20;;;18.40;61.50;;;;;;4842188;29;20080;-78
2021/08/02 11:42:02;;;;;;;1.27;0.20;;;18.30;61.50;;;;;;4841599;29;20227;-79
2021/08/02 11:44:28;;;;;;;0.75;0.30;;;18.20;61.50;;;;;;4841969;29;20535;-74
2021/08/02 11:46:55;;;;;;;3.03;0.30;;;18.20;62.00;;;;;;4841645;29;20478;-76
2021/08/02 11:49:22;;;;;;;1.85;0.43;;;18.20;63.10;;;;;;4852472;29;20056;-76
2021/08/02 11:51:49;;;;;;;3.05;0.13;;;18.20;63.40;;;;;;4860346;29;20371;-76
2021/08/02 11:54:22;;;;;;;1.98;0.20;;;18.20;64.70;;;;;;4860008;29;20068;-76
2021/08/02 11:56:48;;;;;;;0.20;0.10;;;18.10;64.20;;;;;;4860366;29;20045;-76
2021/08/02 11:59:22;;;;;;;1.85;0.10;;;18.00;63.60;;;;;;4859880;29;20398;-76
2021/08/02 12:01:50;;;;;;;0.20;0.10;;;17.90;63.20;;;;;;4859460;29;20402;-76
2021/08/02 12:04:17;;;;;;;0.98;0.25;;;17.90;63.30;;;;;;4860139;29;20048;-76
2021/08/02 12:06:57;;;;;;;1.77;0.10;;;17.90;63.40;;;;;;4860219;29;20030;-76
2021/08/02 12:09:35;;;;;;;0.70;0.20;;;18.00;62.50;;;;;;4859809;29;20037;-76
2021/08/02 12:12:07;;;;;;;0.90;0.15;;;18.20;63.10;;;;;;4859824;29;20441;-76
2021/08/02 12:14:34;;;;;;;15.73;0.52;;;18.30;61.80;;;;;;4860003;29;20033;-76
2021/08/02 12:17:07;;;;;;;0.88;0.15;;;18.20;60.60;;;;;;4860054;29;20038;-76
2021/08/02 12:19:47;;;;;;;0.10;0.10;;;18.30;60.50;;;;;;4860186;29;20033;-76
2021/08/02 12:22:13;;;;;;;0.10;0.10;;;18.20;62.20;;;;;;4859602;29;20068;-76
2021/08/02 12:24:59;;;;;;;0.20;0.10;;;18.30;63.30;;;;;;4859967;29;20033;-76
2021/08/02 12:27:26;;;;;;;5.68;0.38;;;18.30;63.20;;;;;;4859710;29;20059;-76
2021/08/02 12:30:02;;;;;;;4.28;0.32;;;18.20;63.50;;;;;;4859591;29;20393;-76
2021/08/02 12:32:57;;;;;;;0.10;0.10;;;18.20;63.90;;;;;;4859851;29;20035;-76
2021/08/02 12:35:23;;;;;;;0.68;0.20;;;18.10;63.70;;;;;;4862880;29;20124;-76
2021/08/02 12:37:48;;;;;;;0.32;0.30;;;18.00;64.30;;;;;;4859897;29;20108;-76
2021/08/02 12:40:16;;;;;;;0.43;0.30;;;18.00;63.30;;;;;;4859296;29;20078;-76
2021/08/02 12:42:44;;;;;;;9.95;1.27;;;18.10;64.30;;;;;;4859407;29;20097;-76
2021/08/02 12:45:11;;;;;;;15.85;0.68;;;18.10;62.70;;;;;;4873484;29;20029;-76
2021/08/02 12:47:37;;;;;;;1.08;0.20;;;18.10;61.80;;;;;;4859688;29;20065;-76
2021/08/02 12:50:05;;;;;;;6.53;0.35;;;18.00;61.80;;;;;;4859329;29;20076;-76
2021/08/02 12:52:31;;;;;;;0.88;0.30;;;18.00;61.80;;;;;;4859685;29;20032;-76
2021/08/02 12:54:59;;;;;;;0.73;0.20;;;17.90;62.10;;;;;;4859536;29;20041;-76
2021/08/02 12:57:26;;;;;;;0.38;0.17;;;17.90;61.60;;;;;;4859194;29;20029;-76
2021/08/02 12:59:59;;;;;;;0.80;0.20;;;18.00;61.40;;;;;;4859349;29;20044;-76
2021/08/02 13:02:26;;;;;;;1.15;0.20;;;17.90;61.10;;;;;;4859430;29;20033;-76
2021/08/02 13:04:52;;;;;;;1.75;0.20;;;17.90;61.60;;;;;;4859287;29;20059;-76
2021/08/02 13:07:18;;;;;;;1.15;0.20;;;18.00;62.70;;;;;;4859101;29;20076;-75
2021/08/02 13:09:44;;;;;;;0.30;0.20;;;18.00;62.90;;;;;;4859352;29;20065;-76
2021/08/02 13:12:10;;;;;;;0.80;0.15;;;17.90;63.00;;;;;;4860349;29;20437;-76
2021/08/02 13:14:35;;;;;;;0.82;0.20;;;18.00;63.90;;;;;;4863041;29;20565;-76
2021/08/02 13:17:01;;;;;;;0.55;0.20;;;18.10;62.80;;;;;;4862758;29;20029;-75
2021/08/02 13:19:27;;;;;;;0.43;0.20;;;18.10;61.90;;;;;;4862710;29;20174;-76
2021/08/02 13:21:53;;;;;;;0.20;0.20;;;18.00;61.40;;;;;;4862569;29;20049;-76
2021/08/02 13:27:04;;;;;;;0.65;0.20;;;18.20;63.60;;;;;;4862796;29;20040;-76
2021/08/02 13:29:35;;;;;;;0.98;0.20;;;18.20;62.90;;;;;;4862809;29;20080;-76